Aérodrome :
LOGIN :

S'inscrire | Disclaimer

   EN    FR    IT 

 










Légende :    VFR   VFR Marginal   IFR   IFR Intensif   IFR Très Intensif
Visi : 
Plafond : 
>= 8 km
>= 3000ft
5 à 8 km
1000 à 3000 ft
1500m à 5 km
500 à 1000 ft
800 à 1500m
200 à 500 ft
< 800m
< 200 ft
Symboles :   Orages  Brouillard  Fortes neiges  Fortes précipitations  Vent > 20 kt
SIGMETs :   Divers  Orages  Givrage  Turbulence  Onde Orograph.  Cendres Volcan.







- Altitude de l'aérodrome : 529 ft
- Code IATA : CHR
- Voir les cartes d'approche


LFLX - Chateauroux

DERNIER METAR :
  • 211000Z AUTO 24006KT 2500 -RA BR BKN004 OVC008 08/08 Q1019 NOSIG

METARs EXPIRÉS :
  • 210930Z AUTO 25006KT 9999 -RA SCT004 SCT009 BKN018 08/08 Q1019 TEMPO 2000 -RADZ BKN003
  • 210900Z AUTO 24008KT 7000 -RA BKN030 OVC035 08/08 Q1018 TEMPO 2000 -RADZ BKN003
  • 210830Z AUTO 24005KT 9000 -RA FEW034/// BKN040/// BKN046/// ///TCU 08/07 Q1018 TEMPO 2000 -RADZ BKN003
  • 210800Z AUTO 25005KT 8000 -RA BKN046/// BKN054/// OVC072/// ///TCU 08/07 Q1018 TEMPO 2000 -RADZ BKN003
  • 210730Z AUTO 31005KT 9999 -RA OVC044/// ///TCU 08/07 Q1018 TEMPO 2000 -RADZ BKN003

TAF TAF LFLX
Valide du 21 à 06h jusqu'au 22 à 12h UTC


210500Z 2106/2212 26008KT CAVOK
BECMG 2107/2109 BKN008
TEMPO 2109/2119 2000 -RADZ BKN003
BECMG 2114/2116 26015G25KT
TEMPO 2119/2212 BKN012
TEMPO 2204/2212 26020G38KT
Pas de NOTAMs connus pour ce terrain.
1 SIGMET publié pour la FIR Bordeaux (LFBB) :
 
Turbulence forte
LFBB SIGMET 2 VALID 211000/211400 LFPW
LFBB BORDEAUX FIR/UIR SEV TURB FCST SE OF LINE N4330 E00245 - N4230 E00115 SFC/FL150 STNR INTSF=



MET'MAP, la Météo Aéronautique d'un coup d'oeil ! - Copyright ORBIFLY Décembre 2007 - Disclaimer

ORBIFLY MET'MAP TEAM :

Programmation & Développement : Alexandra Zaïnal
Conception & Développement : Baudouin d'Aumeries
Co-Programmation & Développement : Marc-Olivier Méhu
Soutien technique & logistique : Manuel Goepfert

Contact : metmap@orbifly.com




SOURCES & CREDITS :

   NOAA